sensor_id;sensor_type;location;lat;lon;timestamp;P1;durP1;ratioP1;P2;durP2;ratioP2
75340;SDS011;64931;47.562;18.920;2023-01-29T00:02:17;38.70;;;18.80;;
75340;SDS011;64931;47.562;18.920;2023-01-29T00:04:42;38.70;;;16.70;;
75340;SDS011;64931;47.562;18.920;2023-01-29T00:07:08;41.20;;;18.70;;
75340;SDS011;64931;47.562;18.920;2023-01-29T00:09:34;39.50;;;18.60;;
75340;SDS011;64931;47.562;18.920;2023-01-29T00:11:59;40.40;;;17.40;;
75340;SDS011;64931;47.562;18.920;2023-01-29T00:14:24;42.20;;;17.70;;
75340;SDS011;64931;47.562;18.920;2023-01-29T00:16:51;36.10;;;17.90;;
75340;SDS011;64931;47.562;18.920;2023-01-29T00:19:17;35.50;;;16.90;;
75340;SDS011;64931;47.562;18.920;2023-01-29T00:21:43;34.10;;;17.60;;
75340;SDS011;64931;47.562;18.920;2023-01-29T00:24:09;35.50;;;17.70;;
75340;SDS011;64931;47.562;18.920;2023-01-29T00:26:35;32.00;;;17.50;;
75340;SDS011;64931;47.562;18.920;2023-01-29T00:29:03;37.10;;;17.40;;
75340;SDS011;64931;47.562;18.920;2023-01-29T00:31:29;36.70;;;17.10;;
75340;SDS011;64931;47.562;18.920;2023-01-29T00:33:55;35.70;;;17.80;;
75340;SDS011;64931;47.562;18.920;2023-01-29T00:36:21;37.90;;;17.30;;
75340;SDS011;64931;47.562;18.920;2023-01-29T00:38:47;36.80;;;17.60;;
75340;SDS011;64931;47.562;18.920;2023-01-29T00:41:28;36.90;;;16.50;;
75340;SDS011;64931;47.562;18.920;2023-01-29T00:44:14;34.70;;;17.40;;
75340;SDS011;64931;47.562;18.920;2023-01-29T00:46:58;37.00;;;17.40;;
75340;SDS011;64931;47.562;18.920;2023-01-29T00:49:24;33.10;;;17.30;;
75340;SDS011;64931;47.562;18.920;2023-01-29T00:51:50;31.40;;;15.80;;
75340;SDS011;64931;47.562;18.920;2023-01-29T00:54:34;35.20;;;17.10;;
75340;SDS011;64931;47.562;18.920;2023-01-29T00:57:00;35.00;;;15.90;;
75340;SDS011;64931;47.562;18.920;2023-01-29T00:59:26;40.90;;;18.30;;
75340;SDS011;64931;47.562;18.920;2023-01-29T01:01:52;33.10;;;16.10;;
75340;SDS011;64931;47.562;18.920;2023-01-29T01:04:37;34.10;;;16.60;;
75340;SDS011;64931;47.562;18.920;2023-01-29T01:07:02;36.60;;;17.70;;
75340;SDS011;64931;47.562;18.920;2023-01-29T01:09:27;34.10;;;17.00;;
75340;SDS011;64931;47.562;18.920;2023-01-29T01:12:12;33.80;;;15.90;;
75340;SDS011;64931;47.562;18.920;2023-01-29T01:14:37;36.10;;;16.90;;
75340;SDS011;64931;47.562;18.920;2023-01-29T01:17:07;37.70;;;16.30;;
75340;SDS011;64931;47.562;18.920;2023-01-29T01:19:33;37.80;;;17.20;;
75340;SDS011;64931;47.562;18.920;2023-01-29T01:21:59;35.20;;;17.30;;
75340;SDS011;64931;47.562;18.920;2023-01-29T01:24:24;39.60;;;17.10;;
75340;SDS011;64931;47.562;18.920;2023-01-29T01:26:49;38.10;;;17.50;;
75340;SDS011;64931;47.562;18.920;2023-01-29T01:29:15;37.90;;;17.70;;
75340;SDS011;64931;47.562;18.920;2023-01-29T01:31:40;34.00;;;15.70;;
75340;SDS011;64931;47.562;18.920;2023-01-29T01:34:06;37.40;;;18.00;;
75340;SDS011;64931;47.562;18.920;2023-01-29T01:36:31;35.90;;;16.20;;
75340;SDS011;64931;47.562;18.920;2023-01-29T01:38:57;35.70;;;16.60;;
75340;SDS011;64931;47.562;18.920;2023-01-29T01:41:22;39.50;;;17.80;;
75340;SDS011;64931;47.562;18.920;2023-01-29T01:43:55;39.50;;;17.30;;
75340;SDS011;64931;47.562;18.920;2023-01-29T01:46:22;34.50;;;15.80;;
75340;SDS011;64931;47.562;18.920;2023-01-29T01:48:53;35.70;;;15.40;;
75340;SDS011;64931;47.562;18.920;2023-01-29T01:51:23;32.10;;;15.50;;
75340;SDS011;64931;47.562;18.920;2023-01-29T01:53:55;35.50;;;16.10;;
75340;SDS011;64931;47.562;18.920;2023-01-29T01:56:26;35.30;;;16.70;;
75340;SDS011;64931;47.562;18.920;2023-01-29T01:59:02;38.50;;;16.40;;
75340;SDS011;64931;47.562;18.920;2023-01-29T02:01:31;35.30;;;17.50;;
75340;SDS011;64931;47.562;18.920;2023-01-29T02:04:01;40.30;;;18.00;;
75340;SDS011;64931;47.562;18.920;2023-01-29T02:06:49;34.60;;;16.40;;
75340;SDS011;64931;47.562;18.920;2023-01-29T02:09:36;35.00;;;15.10;;
75340;SDS011;64931;47.562;18.920;2023-01-29T02:12:18;38.80;;;16.00;;
75340;SDS011;64931;47.562;18.920;2023-01-29T02:14:59;36.20;;;15.70;;
75340;SDS011;64931;47.562;18.920;2023-01-29T02:17:37;37.60;;;17.40;;
75340;SDS011;64931;47.562;18.920;2023-01-29T02:20:28;35.80;;;18.60;;
75340;SDS011;64931;47.562;18.920;2023-01-29T02:29:54;38.20;;;16.10;;
75340;SDS011;64931;47.562;18.920;2023-01-29T02:32:41;31.50;;;14.70;;
75340;SDS011;64931;47.562;18.920;2023-01-29T02:36:03;38.90;;;16.50;;
75340;SDS011;64931;47.562;18.920;2023-01-29T02:41:03;35.50;;;15.40;;
75340;SDS011;64931;47.562;18.920;2023-01-29T02:49:05;38.20;;;16.50;;
75340;SDS011;64931;47.562;18.920;2023-01-29T02:54:23;36.60;;;15.00;;
75340;SDS011;64931;47.562;18.920;2023-01-29T02:56:54;32.00;;;14.80;;
75340;SDS011;64931;47.562;18.920;2023-01-29T02:59:28;33.10;;;15.30;;
75340;SDS011;64931;47.562;18.920;2023-01-29T03:02:00;32.90;;;14.90;;
75340;SDS011;64931;47.562;18.920;2023-01-29T03:04:32;31.00;;;14.40;;
75340;SDS011;64931;47.562;18.920;2023-01-29T03:07:02;33.90;;;14.90;;
75340;SDS011;64931;47.562;18.920;2023-01-29T03:11:58;34.50;;;15.70;;
75340;SDS011;64931;47.562;18.920;2023-01-29T03:18:25;30.90;;;14.70;;
75340;SDS011;64931;47.562;18.920;2023-01-29T03:21:20;31.70;;;14.40;;
75340;SDS011;64931;47.562;18.920;2023-01-29T03:31:12;29.70;;;14.20;;
75340;SDS011;64931;47.562;18.920;2023-01-29T03:37:31;32.90;;;13.90;;
75340;SDS011;64931;47.562;18.920;2023-01-29T03:40:06;27.70;;;13.30;;
75340;SDS011;64931;47.562;18.920;2023-01-29T03:45:27;29.00;;;14.00;;
75340;SDS011;64931;47.562;18.920;2023-01-29T03:48:03;26.40;;;13.40;;
75340;SDS011;64931;47.562;18.920;2023-01-29T03:50:47;26.10;;;11.60;;
75340;SDS011;64931;47.562;18.920;2023-01-29T04:03:30;24.80;;;12.00;;
75340;SDS011;64931;47.562;18.920;2023-01-29T04:09:58;21.00;;;9.80;;
75340;SDS011;64931;47.562;18.920;2023-01-29T04:19:37;20.20;;;9.30;;
75340;SDS011;64931;47.562;18.920;2023-01-29T04:22:34;25.00;;;11.00;;
75340;SDS011;64931;47.562;18.920;2023-01-29T04:25:06;24.00;;;10.50;;
75340;SDS011;64931;47.562;18.920;2023-01-29T04:38:49;23.40;;;11.50;;
75340;SDS011;64931;47.562;18.920;2023-01-29T04:41:29;27.60;;;11.40;;
75340;SDS011;64931;47.562;18.920;2023-01-29T04:44:36;27.00;;;11.00;;
75340;SDS011;64931;47.562;18.920;2023-01-29T04:53:49;26.00;;;12.90;;
75340;SDS011;64931;47.562;18.920;2023-01-29T04:59:32;24.20;;;10.80;;
75340;SDS011;64931;47.562;18.920;2023-01-29T05:02:26;24.20;;;11.20;;
75340;SDS011;64931;47.562;18.920;2023-01-29T05:05:03;23.10;;;11.30;;
75340;SDS011;64931;47.562;18.920;2023-01-29T05:07:30;24.90;;;11.80;;
75340;SDS011;64931;47.562;18.920;2023-01-29T05:09:57;26.60;;;11.50;;
75340;SDS011;64931;47.562;18.920;2023-01-29T05:12:23;26.30;;;11.70;;
75340;SDS011;64931;47.562;18.920;2023-01-29T05:14:49;26.70;;;13.00;;
75340;SDS011;64931;47.562;18.920;2023-01-29T05:17:17;28.80;;;12.00;;
75340;SDS011;64931;47.562;18.920;2023-01-29T05:22:10;28.40;;;11.40;;
75340;SDS011;64931;47.562;18.920;2023-01-29T05:24:37;23.90;;;11.10;;
75340;SDS011;64931;47.562;18.920;2023-01-29T05:27:03;26.00;;;11.90;;
75340;SDS011;64931;47.562;18.920;2023-01-29T05:29:47;26.90;;;11.60;;
75340;SDS011;64931;47.562;18.920;2023-01-29T05:32:13;29.10;;;12.50;;
75340;SDS011;64931;47.562;18.920;2023-01-29T05:34:39;22.40;;;11.10;;
75340;SDS011;64931;47.562;18.920;2023-01-29T05:37:05;28.00;;;14.00;;
75340;SDS011;64931;47.562;18.920;2023-01-29T05:39:31;26.90;;;12.00;;
75340;SDS011;64931;47.562;18.920;2023-01-29T05:41:58;27.20;;;12.60;;
75340;SDS011;64931;47.562;18.920;2023-01-29T05:44:24;24.50;;;12.10;;
75340;SDS011;64931;47.562;18.920;2023-01-29T05:46:51;24.60;;;11.50;;
75340;SDS011;64931;47.562;18.920;2023-01-29T05:49:17;23.20;;;10.90;;
75340;SDS011;64931;47.562;18.920;2023-01-29T05:51:44;24.50;;;11.80;;
75340;SDS011;64931;47.562;18.920;2023-01-29T05:54:10;24.90;;;13.00;;
75340;SDS011;64931;47.562;18.920;2023-01-29T05:56:37;23.30;;;11.30;;
75340;SDS011;64931;47.562;18.920;2023-01-29T05:59:03;24.10;;;12.90;;
75340;SDS011;64931;47.562;18.920;2023-01-29T06:01:28;24.20;;;12.60;;
75340;SDS011;64931;47.562;18.920;2023-01-29T06:03:59;24.90;;;13.40;;
75340;SDS011;64931;47.562;18.920;2023-01-29T06:06:24;25.50;;;12.90;;
75340;SDS011;64931;47.562;18.920;2023-01-29T06:08:50;27.30;;;13.50;;
75340;SDS011;64931;47.562;18.920;2023-01-29T06:11:16;27.20;;;13.00;;
75340;SDS011;64931;47.562;18.920;2023-01-29T06:13:42;25.60;;;13.80;;
75340;SDS011;64931;47.562;18.920;2023-01-29T06:16:22;26.50;;;14.00;;
75340;SDS011;64931;47.562;18.920;2023-01-29T06:18:47;25.10;;;12.60;;
75340;SDS011;64931;47.562;18.920;2023-01-29T06:21:24;25.50;;;12.20;;
75340;SDS011;64931;47.562;18.920;2023-01-29T06:23:51;21.90;;;11.80;;
75340;SDS011;64931;47.562;18.920;2023-01-29T06:26:17;24.50;;;12.90;;
75340;SDS011;64931;47.562;18.920;2023-01-29T06:28:43;22.30;;;12.50;;
75340;SDS011;64931;47.562;18.920;2023-01-29T06:31:09;24.40;;;12.10;;
75340;SDS011;64931;47.562;18.920;2023-01-29T06:34:01;24.60;;;11.60;;
75340;SDS011;64931;47.562;18.920;2023-01-29T06:36:28;22.40;;;11.80;;
75340;SDS011;64931;47.562;18.920;2023-01-29T06:38:54;23.60;;;12.20;;
75340;SDS011;64931;47.562;18.920;2023-01-29T06:41:20;21.20;;;11.40;;
75340;SDS011;64931;47.562;18.920;2023-01-29T06:43:49;22.50;;;12.10;;
75340;SDS011;64931;47.562;18.920;2023-01-29T06:46:15;25.10;;;12.60;;
75340;SDS011;64931;47.562;18.920;2023-01-29T06:48:41;21.80;;;11.30;;
75340;SDS011;64931;47.562;18.920;2023-01-29T06:51:07;22.00;;;11.50;;
75340;SDS011;64931;47.562;18.920;2023-01-29T06:53:33;24.20;;;12.10;;
75340;SDS011;64931;47.562;18.920;2023-01-29T06:55:59;20.20;;;10.70;;
75340;SDS011;64931;47.562;18.920;2023-01-29T06:58:27;20.30;;;10.30;;
75340;SDS011;64931;47.562;18.920;2023-01-29T07:00:52;21.90;;;11.20;;
75340;SDS011;64931;47.562;18.920;2023-01-29T07:03:18;19.40;;;10.60;;
75340;SDS011;64931;47.562;18.920;2023-01-29T07:05:49;19.30;;;10.50;;
75340;SDS011;64931;47.562;18.920;2023-01-29T07:08:16;21.00;;;11.20;;
75340;SDS011;64931;47.562;18.920;2023-01-29T07:10:41;21.40;;;10.40;;
75340;SDS011;64931;47.562;18.920;2023-01-29T07:13:06;22.80;;;9.90;;
75340;SDS011;64931;47.562;18.920;2023-01-29T07:15:32;22.60;;;10.70;;
75340;SDS011;64931;47.562;18.920;2023-01-29T07:18:00;20.90;;;11.10;;
75340;SDS011;64931;47.562;18.920;2023-01-29T07:20:29;20.40;;;10.30;;
75340;SDS011;64931;47.562;18.920;2023-01-29T07:22:57;19.70;;;10.50;;
75340;SDS011;64931;47.562;18.920;2023-01-29T07:25:34;16.70;;;9.30;;
75340;SDS011;64931;47.562;18.920;2023-01-29T07:28:00;18.70;;;10.80;;
75340;SDS011;64931;47.562;18.920;2023-01-29T07:30:26;20.80;;;10.20;;
75340;SDS011;64931;47.562;18.920;2023-01-29T07:32:51;18.60;;;9.70;;
75340;SDS011;64931;47.562;18.920;2023-01-29T07:35:17;19.50;;;9.40;;
75340;SDS011;64931;47.562;18.920;2023-01-29T07:37:48;19.30;;;10.00;;
75340;SDS011;64931;47.562;18.920;2023-01-29T07:40:14;22.70;;;10.20;;
75340;SDS011;64931;47.562;18.920;2023-01-29T07:42:40;17.40;;;8.80;;
75340;SDS011;64931;47.562;18.920;2023-01-29T07:47:34;20.00;;;10.00;;
75340;SDS011;64931;47.562;18.920;2023-01-29T07:49:59;19.20;;;9.20;;
75340;SDS011;64931;47.562;18.920;2023-01-29T07:52:25;19.10;;;9.60;;
75340;SDS011;64931;47.562;18.920;2023-01-29T07:54:50;17.90;;;8.70;;
75340;SDS011;64931;47.562;18.920;2023-01-29T07:57:15;15.60;;;8.00;;
75340;SDS011;64931;47.562;18.920;2023-01-29T07:59:42;17.20;;;9.00;;
75340;SDS011;64931;47.562;18.920;2023-01-29T08:02:08;18.20;;;8.30;;
75340;SDS011;64931;47.562;18.920;2023-01-29T08:04:39;17.30;;;9.30;;
75340;SDS011;64931;47.562;18.920;2023-01-29T08:18:05;17.50;;;9.90;;
75340;SDS011;64931;47.562;18.920;2023-01-29T08:20:31;15.80;;;8.70;;
75340;SDS011;64931;47.562;18.920;2023-01-29T08:23:00;16.00;;;8.90;;
75340;SDS011;64931;47.562;18.920;2023-01-29T08:25:26;15.80;;;8.70;;
75340;SDS011;64931;47.562;18.920;2023-01-29T08:27:52;16.70;;;9.20;;
75340;SDS011;64931;47.562;18.920;2023-01-29T08:30:17;17.80;;;8.70;;
75340;SDS011;64931;47.562;18.920;2023-01-29T08:32:42;16.10;;;8.30;;
75340;SDS011;64931;47.562;18.920;2023-01-29T08:35:08;16.50;;;7.80;;
75340;SDS011;64931;47.562;18.920;2023-01-29T08:37:33;15.10;;;8.40;;
75340;SDS011;64931;47.562;18.920;2023-01-29T08:39:59;15.10;;;8.50;;
75340;SDS011;64931;47.562;18.920;2023-01-29T08:42:24;14.10;;;7.70;;
75340;SDS011;64931;47.562;18.920;2023-01-29T08:44:50;16.30;;;7.70;;
75340;SDS011;64931;47.562;18.920;2023-01-29T08:47:18;14.70;;;8.10;;
75340;SDS011;64931;47.562;18.920;2023-01-29T08:49:43;14.40;;;7.30;;
75340;SDS011;64931;47.562;18.920;2023-01-29T08:52:09;14.70;;;7.40;;
75340;SDS011;64931;47.562;18.920;2023-01-29T08:54:34;15.60;;;7.30;;
75340;SDS011;64931;47.562;18.920;2023-01-29T08:56:59;16.00;;;7.60;;
75340;SDS011;64931;47.562;18.920;2023-01-29T08:59:29;14.90;;;8.00;;
75340;SDS011;64931;47.562;18.920;2023-01-29T09:01:55;13.10;;;7.10;;
75340;SDS011;64931;47.562;18.920;2023-01-29T09:04:20;13.70;;;7.00;;
75340;SDS011;64931;47.562;18.920;2023-01-29T09:06:46;14.00;;;6.60;;
75340;SDS011;64931;47.562;18.920;2023-01-29T09:09:15;14.00;;;7.10;;
75340;SDS011;64931;47.562;18.920;2023-01-29T09:11:40;14.80;;;7.40;;
75340;SDS011;64931;47.562;18.920;2023-01-29T09:14:06;14.10;;;7.10;;
75340;SDS011;64931;47.562;18.920;2023-01-29T09:16:32;12.90;;;7.00;;
75340;SDS011;64931;47.562;18.920;2023-01-29T09:18:57;13.50;;;7.10;;
75340;SDS011;64931;47.562;18.920;2023-01-29T09:27:26;15.40;;;7.40;;
75340;SDS011;64931;47.562;18.920;2023-01-29T09:29:51;15.10;;;7.90;;
75340;SDS011;64931;47.562;18.920;2023-01-29T09:32:17;15.70;;;8.10;;
75340;SDS011;64931;47.562;18.920;2023-01-29T09:34:42;12.40;;;6.40;;
75340;SDS011;64931;47.562;18.920;2023-01-29T09:37:08;14.40;;;7.30;;
75340;SDS011;64931;47.562;18.920;2023-01-29T09:39:33;13.70;;;7.60;;
75340;SDS011;64931;47.562;18.920;2023-01-29T09:42:45;13.70;;;7.40;;
75340;SDS011;64931;47.562;18.920;2023-01-29T09:45:23;13.60;;;6.30;;
75340;SDS011;64931;47.562;18.920;2023-01-29T09:47:49;13.50;;;7.00;;
75340;SDS011;64931;47.562;18.920;2023-01-29T09:53:08;13.90;;;7.10;;
75340;SDS011;64931;47.562;18.920;2023-01-29T09:55:57;14.00;;;6.60;;
75340;SDS011;64931;47.562;18.920;2023-01-29T09:58:32;13.70;;;6.40;;
75340;SDS011;64931;47.562;18.920;2023-01-29T10:26:52;13.90;;;7.70;;
75340;SDS011;64931;47.562;18.920;2023-01-29T10:30:03;14.90;;;7.30;;
75340;SDS011;64931;47.562;18.920;2023-01-29T10:32:46;14.60;;;7.50;;
75340;SDS011;64931;47.562;18.920;2023-01-29T10:35:19;12.00;;;6.30;;
75340;SDS011;64931;47.562;18.920;2023-01-29T11:00:40;11.80;;;6.00;;
75340;SDS011;64931;47.562;18.920;2023-01-29T11:06:33;11.70;;;6.00;;
75340;SDS011;64931;47.562;18.920;2023-01-29T11:09:35;17.80;;;9.40;;
75340;SDS011;64931;47.562;18.920;2023-01-29T11:12:22;14.30;;;6.60;;
75340;SDS011;64931;47.562;18.920;2023-01-29T11:15:38;13.20;;;6.50;;
75340;SDS011;64931;47.562;18.920;2023-01-29T11:21:05;13.80;;;6.40;;
75340;SDS011;64931;47.562;18.920;2023-01-29T11:27:03;12.10;;;6.00;;
75340;SDS011;64931;47.562;18.920;2023-01-29T11:30:24;13.50;;;7.70;;
75340;SDS011;64931;47.562;18.920;2023-01-29T11:46:25;15.10;;;8.20;;
75340;SDS011;64931;47.562;18.920;2023-01-29T11:49:32;13.60;;;8.20;;
75340;SDS011;64931;47.562;18.920;2023-01-29T12:09:55;11.10;;;6.50;;
75340;SDS011;64931;47.562;18.920;2023-01-29T12:15:15;9.60;;;4.50;;
75340;SDS011;64931;47.562;18.920;2023-01-29T12:20:34;9.90;;;5.50;;
75340;SDS011;64931;47.562;18.920;2023-01-29T12:23:05;9.90;;;5.30;;
75340;SDS011;64931;47.562;18.920;2023-01-29T12:32:56;9.70;;;5.70;;
75340;SDS011;64931;47.562;18.920;2023-01-29T12:42:49;10.40;;;5.10;;
75340;SDS011;64931;47.562;18.920;2023-01-29T13:12:00;10.00;;;5.30;;
75340;SDS011;64931;47.562;18.920;2023-01-29T13:18:49;9.60;;;5.20;;
75340;SDS011;64931;47.562;18.920;2023-01-29T13:21:46;9.00;;;5.10;;
75340;SDS011;64931;47.562;18.920;2023-01-29T13:27:42;10.40;;;5.80;;
75340;SDS011;64931;47.562;18.920;2023-01-29T13:30:22;8.50;;;5.20;;
75340;SDS011;64931;47.562;18.920;2023-01-29T13:32:52;9.90;;;5.30;;
75340;SDS011;64931;47.562;18.920;2023-01-29T13:35:19;11.10;;;6.10;;
75340;SDS011;64931;47.562;18.920;2023-01-29T13:37:55;12.80;;;7.10;;
75340;SDS011;64931;47.562;18.920;2023-01-29T13:40:24;10.90;;;6.30;;
75340;SDS011;64931;47.562;18.920;2023-01-29T13:42:51;10.30;;;5.60;;
75340;SDS011;64931;47.562;18.920;2023-01-29T13:47:45;10.60;;;6.20;;
75340;SDS011;64931;47.562;18.920;2023-01-29T13:50:22;11.10;;;6.20;;
75340;SDS011;64931;47.562;18.920;2023-01-29T13:52:53;12.80;;;6.20;;
75340;SDS011;64931;47.562;18.920;2023-01-29T13:55:24;12.30;;;6.50;;
75340;SDS011;64931;47.562;18.920;2023-01-29T13:58:01;11.90;;;6.60;;
75340;SDS011;64931;47.562;18.920;2023-01-29T14:00:47;11.40;;;6.50;;
75340;SDS011;64931;47.562;18.920;2023-01-29T14:05:40;11.50;;;6.40;;
75340;SDS011;64931;47.562;18.920;2023-01-29T14:13:45;10.70;;;5.90;;
75340;SDS011;64931;47.562;18.920;2023-01-29T14:19:14;12.60;;;6.80;;
75340;SDS011;64931;47.562;18.920;2023-01-29T14:21:48;12.10;;;6.60;;
75340;SDS011;64931;47.562;18.920;2023-01-29T14:24:15;11.70;;;6.80;;
75340;SDS011;64931;47.562;18.920;2023-01-29T14:26:46;13.00;;;7.80;;
75340;SDS011;64931;47.562;18.920;2023-01-29T14:29:17;12.70;;;6.80;;
75340;SDS011;64931;47.562;18.920;2023-01-29T14:34:40;12.80;;;7.20;;
75340;SDS011;64931;47.562;18.920;2023-01-29T14:37:50;11.90;;;7.60;;
75340;SDS011;64931;47.562;18.920;2023-01-29T14:43:21;12.60;;;8.50;;
75340;SDS011;64931;47.562;18.920;2023-01-29T14:49:01;15.00;;;8.60;;
75340;SDS011;64931;47.562;18.920;2023-01-29T14:51:30;13.10;;;7.20;;
75340;SDS011;64931;47.562;18.920;2023-01-29T14:54:02;11.60;;;7.10;;
75340;SDS011;64931;47.562;18.920;2023-01-29T15:02:36;14.00;;;7.80;;
75340;SDS011;64931;47.562;18.920;2023-01-29T15:05:56;13.60;;;7.80;;
75340;SDS011;64931;47.562;18.920;2023-01-29T15:08:26;13.80;;;8.60;;
75340;SDS011;64931;47.562;18.920;2023-01-29T15:11:03;13.50;;;8.30;;
75340;SDS011;64931;47.562;18.920;2023-01-29T15:13:52;14.70;;;8.50;;
75340;SDS011;64931;47.562;18.920;2023-01-29T15:25:13;16.00;;;8.00;;
75340;SDS011;64931;47.562;18.920;2023-01-29T15:42:03;14.20;;;8.10;;
75340;SDS011;64931;47.562;18.920;2023-01-29T15:48:56;15.60;;;8.00;;
75340;SDS011;64931;47.562;18.920;2023-01-29T15:51:59;15.80;;;8.40;;
75340;SDS011;64931;47.562;18.920;2023-01-29T15:58:37;15.90;;;8.70;;
75340;SDS011;64931;47.562;18.920;2023-01-29T16:01:10;16.00;;;8.30;;
75340;SDS011;64931;47.562;18.920;2023-01-29T16:03:56;16.80;;;8.30;;
75340;SDS011;64931;47.562;18.920;2023-01-29T16:06:48;16.90;;;9.50;;
75340;SDS011;64931;47.562;18.920;2023-01-29T16:09:38;23.40;;;10.50;;
75340;SDS011;64931;47.562;18.920;2023-01-29T16:12:04;23.40;;;11.60;;
75340;SDS011;64931;47.562;18.920;2023-01-29T16:14:38;21.70;;;11.20;;
75340;SDS011;64931;47.562;18.920;2023-01-29T16:17:32;14.50;;;7.80;;
75340;SDS011;64931;47.562;18.920;2023-01-29T16:20:26;19.30;;;9.20;;
75340;SDS011;64931;47.562;18.920;2023-01-29T16:23:05;16.40;;;8.60;;
75340;SDS011;64931;47.562;18.920;2023-01-29T16:25:31;18.20;;;9.70;;
75340;SDS011;64931;47.562;18.920;2023-01-29T16:28:01;19.70;;;10.00;;
75340;SDS011;64931;47.562;18.920;2023-01-29T16:30:28;18.50;;;10.20;;
75340;SDS011;64931;47.562;18.920;2023-01-29T16:32:59;20.90;;;11.80;;
75340;SDS011;64931;47.562;18.920;2023-01-29T16:35:25;23.70;;;12.30;;
75340;SDS011;64931;47.562;18.920;2023-01-29T16:37:51;20.50;;;10.60;;
75340;SDS011;64931;47.562;18.920;2023-01-29T16:40:30;20.20;;;10.70;;
75340;SDS011;64931;47.562;18.920;2023-01-29T16:46:34;20.70;;;11.30;;
75340;SDS011;64931;47.562;18.920;2023-01-29T16:48:58;22.20;;;10.70;;
75340;SDS011;64931;47.562;18.920;2023-01-29T16:51:39;19.50;;;10.30;;
75340;SDS011;64931;47.562;18.920;2023-01-29T16:54:06;20.00;;;10.80;;
75340;SDS011;64931;47.562;18.920;2023-01-29T16:56:35;21.20;;;11.00;;
75340;SDS011;64931;47.562;18.920;2023-01-29T16:59:04;21.90;;;11.40;;
75340;SDS011;64931;47.562;18.920;2023-01-29T17:01:38;19.70;;;9.90;;
75340;SDS011;64931;47.562;18.920;2023-01-29T17:04:22;19.20;;;11.10;;
75340;SDS011;64931;47.562;18.920;2023-01-29T17:06:56;20.00;;;10.90;;
75340;SDS011;64931;47.562;18.920;2023-01-29T17:09:26;19.50;;;11.80;;
75340;SDS011;64931;47.562;18.920;2023-01-29T17:11:56;20.30;;;11.40;;
75340;SDS011;64931;47.562;18.920;2023-01-29T17:14:24;22.80;;;12.60;;
75340;SDS011;64931;47.562;18.920;2023-01-29T17:17:06;21.20;;;11.80;;
75340;SDS011;64931;47.562;18.920;2023-01-29T17:19:41;22.30;;;12.70;;
75340;SDS011;64931;47.562;18.920;2023-01-29T17:22:06;21.40;;;11.30;;
75340;SDS011;64931;47.562;18.920;2023-01-29T17:24:38;20.30;;;12.60;;
75340;SDS011;64931;47.562;18.920;2023-01-29T17:27:10;22.20;;;11.70;;
75340;SDS011;64931;47.562;18.920;2023-01-29T17:29:42;21.20;;;11.70;;
75340;SDS011;64931;47.562;18.920;2023-01-29T17:32:08;23.40;;;11.80;;
75340;SDS011;64931;47.562;18.920;2023-01-29T17:34:34;23.30;;;13.40;;
75340;SDS011;64931;47.562;18.920;2023-01-29T17:36:59;34.90;;;20.10;;
75340;SDS011;64931;47.562;18.920;2023-01-29T17:39:24;29.80;;;17.30;;
75340;SDS011;64931;47.562;18.920;2023-01-29T17:41:54;21.70;;;12.10;;
75340;SDS011;64931;47.562;18.920;2023-01-29T17:44:21;23.60;;;12.90;;
75340;SDS011;64931;47.562;18.920;2023-01-29T17:46:47;25.40;;;14.00;;
75340;SDS011;64931;47.562;18.920;2023-01-29T17:49:17;26.10;;;14.00;;
75340;SDS011;64931;47.562;18.920;2023-01-29T17:51:47;23.80;;;12.80;;
75340;SDS011;64931;47.562;18.920;2023-01-29T17:54:14;25.80;;;13.60;;
75340;SDS011;64931;47.562;18.920;2023-01-29T17:56:39;27.50;;;14.50;;
75340;SDS011;64931;47.562;18.920;2023-01-29T17:59:15;25.70;;;14.60;;
75340;SDS011;64931;47.562;18.920;2023-01-29T18:01:42;25.10;;;13.20;;
75340;SDS011;64931;47.562;18.920;2023-01-29T18:04:09;23.80;;;12.80;;
75340;SDS011;64931;47.562;18.920;2023-01-29T18:06:34;21.30;;;11.80;;
75340;SDS011;64931;47.562;18.920;2023-01-29T18:09:00;22.20;;;12.60;;
75340;SDS011;64931;47.562;18.920;2023-01-29T18:11:25;20.10;;;11.30;;
75340;SDS011;64931;47.562;18.920;2023-01-29T18:13:52;19.60;;;10.30;;
75340;SDS011;64931;47.562;18.920;2023-01-29T18:16:17;24.70;;;13.60;;
75340;SDS011;64931;47.562;18.920;2023-01-29T18:18:45;23.40;;;12.70;;
75340;SDS011;64931;47.562;18.920;2023-01-29T18:21:11;23.60;;;12.40;;
75340;SDS011;64931;47.562;18.920;2023-01-29T18:23:37;20.40;;;10.90;;
75340;SDS011;64931;47.562;18.920;2023-01-29T18:26:02;24.10;;;13.00;;
75340;SDS011;64931;47.562;18.920;2023-01-29T18:28:27;22.30;;;12.30;;
75340;SDS011;64931;47.562;18.920;2023-01-29T18:30:53;23.90;;;12.90;;
75340;SDS011;64931;47.562;18.920;2023-01-29T18:33:19;27.60;;;13.60;;
75340;SDS011;64931;47.562;18.920;2023-01-29T18:35:45;24.70;;;13.40;;
75340;SDS011;64931;47.562;18.920;2023-01-29T18:38:12;23.90;;;12.70;;
75340;SDS011;64931;47.562;18.920;2023-01-29T18:40:37;49.90;;;21.20;;
75340;SDS011;64931;47.562;18.920;2023-01-29T18:43:03;41.50;;;19.50;;
75340;SDS011;64931;47.562;18.920;2023-01-29T18:45:29;22.70;;;12.30;;
75340;SDS011;64931;47.562;18.920;2023-01-29T18:47:55;23.80;;;13.00;;
75340;SDS011;64931;47.562;18.920;2023-01-29T18:50:21;21.40;;;12.00;;
75340;SDS011;64931;47.562;18.920;2023-01-29T18:52:49;22.00;;;12.90;;
75340;SDS011;64931;47.562;18.920;2023-01-29T18:55:15;24.20;;;13.20;;
75340;SDS011;64931;47.562;18.920;2023-01-29T18:57:40;19.40;;;11.40;;
75340;SDS011;64931;47.562;18.920;2023-01-29T19:00:06;24.10;;;13.30;;
75340;SDS011;64931;47.562;18.920;2023-01-29T19:02:32;23.80;;;13.00;;
75340;SDS011;64931;47.562;18.920;2023-01-29T19:04:58;23.90;;;12.80;;
75340;SDS011;64931;47.562;18.920;2023-01-29T19:07:23;21.50;;;12.70;;
75340;SDS011;64931;47.562;18.920;2023-01-29T19:09:48;21.80;;;11.70;;
75340;SDS011;64931;47.562;18.920;2023-01-29T19:12:14;24.00;;;12.80;;
75340;SDS011;64931;47.562;18.920;2023-01-29T19:14:40;23.30;;;12.80;;
75340;SDS011;64931;47.562;18.920;2023-01-29T19:17:05;22.50;;;12.50;;
75340;SDS011;64931;47.562;18.920;2023-01-29T19:19:31;21.80;;;12.00;;
75340;SDS011;64931;47.562;18.920;2023-01-29T19:21:56;22.70;;;12.30;;
75340;SDS011;64931;47.562;18.920;2023-01-29T19:24:22;20.30;;;12.20;;
75340;SDS011;64931;47.562;18.920;2023-01-29T19:26:48;20.60;;;12.10;;
75340;SDS011;64931;47.562;18.920;2023-01-29T19:29:14;26.20;;;12.70;;
75340;SDS011;64931;47.562;18.920;2023-01-29T19:31:40;23.10;;;12.70;;
75340;SDS011;64931;47.562;18.920;2023-01-29T19:34:06;20.90;;;11.60;;
75340;SDS011;64931;47.562;18.920;2023-01-29T19:36:33;23.20;;;12.30;;
75340;SDS011;64931;47.562;18.920;2023-01-29T19:38:58;20.40;;;11.50;;
75340;SDS011;64931;47.562;18.920;2023-01-29T19:41:24;19.70;;;11.00;;
75340;SDS011;64931;47.562;18.920;2023-01-29T19:43:49;22.90;;;11.90;;
75340;SDS011;64931;47.562;18.920;2023-01-29T19:46:15;26.40;;;16.10;;
75340;SDS011;64931;47.562;18.920;2023-01-29T19:48:42;23.90;;;11.70;;
75340;SDS011;64931;47.562;18.920;2023-01-29T19:51:08;20.50;;;11.90;;